Latest Coastal Weather Observations for Warrnambool

IDV60701

Issued at 11:01 am EDT Monday 22 December 2014 (issued every 10 minutes, with the page automatically refreshed every 10 minutes)

About coastal observations | Map of coastal stations | Coastal observations for VIC | Marine services | Other Formats
Station Details ID: 090186 Name: WARRNAMBOOL AIRPORT NDB Lat: -38.29 Lon: 142.45 Height: 70.8 m
Data from the previous 72 hours. | See also: Recent months at Warrnambool
Date/Time
EDT
Temp

°C
Wind Pressure Rain
since 9am
mm
Weather Cloud Vis
km
Sea
Height
m
Swell
Dir
 
Speed
knots
Gust
knots
hPa Trend Height
m
Period
s
Dir
22/11:00am 20.5 ENE 15 21 1010.2 - 0.0 - - - - - - -
22/10:30am 19.0 ESE 9 14 1010.7 - 0.0 - - - - - - -
22/10:00am 16.9 E 7 11 1011.8 - 0.0 - - - - - - -
22/09:30am 16.3 ESE 6 9 1012.4 - 0.0 - - - - - - -
22/09:00am 16.1 E 10 15 1011.9 - 0.0 - - - - - - -
22/08:30am 15.6 ESE 5 8 1012.6 - 0.0 - - - - - - -
22/08:00am 15.0 ESE 5 8 1012.9 - 0.0 - - - - - - -
22/07:30am 14.3 ESE 6 8 1012.6 - 0.0 - - - - - - -
22/07:00am 14.0 S 3 4 1012.9 - 0.0 - - - - - - -
22/06:30am 13.8 E 1 3 1012.3 - 0.0 - - - - - - -
22/06:00am 13.8 E 4 7 1012.2 - 0.0 - - - - - - -
22/05:30am 13.9 E 5 8 1011.8 - 0.0 - - - - - - -
22/05:00am 13.7 ESE 5 6 1011.6 - 0.0 - - - - - - -
22/04:30am 13.7 ESE 2 4 1011.9 - 0.0 - - - - - - -
22/04:00am 13.4 E 5 6 1012.0 - 0.0 - - - - - - -
22/03:30am 13.6 SSE 6 7 1012.8 - 0.0 - - - - - - -
22/03:00am 14.0 SE 4 6 1012.9 - 0.0 - - - - - - -
22/02:30am 14.6 SE 6 9 1013.3 - 0.0 - - - - - - -
22/02:00am 14.9 SE 9 13 1013.6 - 0.0 - - - - - - -
22/01:30am 14.5 SSE 9 13 1014.0 - 0.0 - - - - - - -
22/01:00am 14.7 S 11 14 1014.0 - 0.0 - - - - - - -
22/12:30am 14.3 S 10 12 1014.5 - 0.0 - - - - - - -
22/12:00am 14.9 SSE 9 12 1014.8 - 0.0 - - - - - - -
 
Date/Time
EDT
Temp

°C
Wind Pressure Rain
since 9am
mm
Weather Cloud Vis
km
Sea
Height
m
Swell
Dir
 
Speed
knots
Gust
knots
hPa Trend Height
m
Period
s
Dir
21/11:30pm 15.9 SE 9 12 1014.7 - 0.0 - - - - - - -
21/11:00pm 16.0 SE 9 13 1014.9 - 0.0 - - - - - - -
21/10:30pm 16.1 SE 9 11 1015.3 - 0.0 - - - - - - -
21/10:00pm 16.2 SSE 11 14 1015.2 - 0.0 - - - - - - -
21/09:30pm 16.2 SSE 12 16 1014.8 - 0.0 - - - - - - -
21/09:00pm 16.1 SSE 12 16 1014.6 - 0.0 - - - - - - -
21/08:30pm 15.9 SSE 13 16 1014.2 - 0.0 - - - - - - -
21/08:00pm 16.9 SSE 15 19 1014.0 - 0.0 - - - - - - -
21/07:30pm 17.2 S 15 20 1013.8 - 0.0 - - - - - - -
21/07:00pm 17.7 S 15 19 1013.7 - 0.0 - - - - - - -
21/06:30pm 18.3 SSW 14 17 1013.2 - 0.0 - - - - - - -
21/06:00pm 20.1 SSW 12 16 1013.1 - 0.0 - - - - - - -
21/05:30pm 21.7 SSW 12 15 1012.8 - 0.0 - - - - - - -
21/05:00pm 22.2 SSW 10 14 1012.8 - 0.0 - - - - - - -
21/04:30pm 22.1 SSW 10 13 1012.9 - 0.0 - - - - - - -
21/04:00pm 21.4 SSW 11 14 1013.0 - 0.0 - - - - - - -
21/03:30pm 22.6 S 10 14 1013.0 - 0.0 - - - - - - -
21/03:00pm 23.3 S 10 14 1013.1 - 0.0 - - - - - - -
21/02:30pm 22.9 SSE 12 16 1013.3 - 0.0 - - - - - - -
21/02:00pm 22.6 SSE 13 17 1013.8 - 0.0 - - - - - - -
21/01:30pm 21.4 SSW 15 21 1014.2 - 0.0 - - - - - - -
21/01:00pm 22.0 SSW 19 23 1014.1 - 0.0 - - - - - - -
21/12:30pm 24.3 SSW 18 23 1013.9 - 0.0 - - - - - - -
21/12:00pm 23.1 SSW 19 23 1014.0 - 0.0 - - - - - - -
21/11:30am 26.9 WSW 12 17 1013.2 - 0.0 - - - - - - -
21/11:00am 26.6 WNW 6 10 1013.3 - 0.0 - - - - - - -
21/10:30am 26.0 N 7 10 1013.6 - 0.0 - - - - - - -
21/10:00am 24.3 NNE 5 8 1013.7 - 0.0 - - - - - - -
21/09:30am 21.7 NE 6 8 1013.8 - 0.0 - - - - - - -
21/09:00am 19.2 NE 8 11 1013.8 - 0.0 - - - - - - -
21/08:30am 16.8 NE 10 13 1013.7 - 0.0 - - - - - - -
21/08:00am 14.8 NE 10 13 1013.9 - 0.0 - - - - - - -
21/07:30am 13.0 NE 8 11 1013.6 - 0.0 - - - - - - -
21/07:00am 11.8 NE 9 11 1013.4 - 0.0 - - - - - - -
21/06:30am 11.1 NE 8 12 1013.2 - 0.0 - - - - - - -
21/06:00am 10.6 ENE 7 9 1013.1 - 0.0 - - - - - - -
21/05:30am 11.0 ENE 6 8 1013.7 - 0.0 - - - - - - -
21/05:00am 11.5 NE 7 10 1013.9 - 0.0 - - - - - - -
21/04:30am 11.9 NE 10 13 1013.8 - 0.0 - - - - - - -
21/04:00am 11.8 NE 9 12 1013.8 - 0.0 - - - - - - -
21/03:30am 11.5 NE 10 13 1013.6 - 0.0 - - - - - - -
21/03:00am 11.1 NE 5 8 1013.7 - 0.0 - - - - - - -
21/02:30am 11.3 NE 5 8 1014.2 - 0.0 - - - - - - -
21/02:00am 11.4 ENE 5 6 1014.8 - 0.0 - - - - - - -
21/01:30am 11.6 ENE 4 6 1015.5 - 0.0 - - - - - - -
21/01:00am 11.8 E 3 5 1016.0 - 0.0 - - - - - - -
21/12:30am 11.9 E 3 5 1016.2 - 0.0 - - - - - - -
21/12:00am 12.1 E 4 6 1016.8 - 0.0 - - - - - - -
 
Date/Time
EDT
Temp

°C
Wind Pressure Rain
since 9am
mm
Weather Cloud Vis
km
Sea
Height
m
Swell
Dir
 
Speed
knots
Gust
knots
hPa Trend Height
m
Period
s
Dir
20/11:30pm 12.0 E 2 4 1017.2 - 0.0 - - - - - - -
20/11:00pm 12.1 CALM 0 0 1017.4 - 0.0 - - - - - - -
20/10:30pm 12.2 SE 2 4 1017.5 - 0.0 - - - - - - -
20/10:00pm 13.0 CALM 0 3 1017.5 - 0.0 - - - - - - -
20/09:30pm 13.2 SE 4 5 1017.4 - 0.0 - - - - - - -
20/09:00pm 14.1 SSE 5 6 1017.5 - 0.0 - - - - - - -
20/08:30pm 15.6 SSE 7 9 1017.4 - 0.0 - - - - - - -
20/08:00pm 16.6 SSE 9 13 1017.3 - 0.0 - - - - - - -
20/07:30pm 17.2 S 10 12 1017.2 - 0.0 - - - - - - -
20/07:00pm 18.1 S 9 13 1017.0 - 0.0 - - - - - - -
20/06:30pm 18.2 SSW 10 14 1017.2 - 0.0 - - - - - - -
20/06:00pm 18.3 SSW 10 13 1017.2 - 0.0 - - - - - - -
20/05:30pm 18.5 SSW 12 16 1017.4 - 0.0 - - - - - - -
20/05:00pm 18.9 SSW 12 16 1017.5 - 0.0 - - - - - - -
20/04:30pm 19.4 SSW 11 16 1017.7 - 0.0 - - - - - - -
20/04:00pm 20.3 S 13 17 1018.0 - 0.0 - - - - - - -
20/03:30pm 19.1 SW 12 17 1018.4 - 0.0 - - - - - - -
20/03:00pm 19.8 SSW 13 18 1018.6 - 0.0 - - - - - - -
20/02:30pm 20.2 SSW 14 20 1018.9 - 0.0 - - - - - - -
20/02:00pm 19.5 SW 14 21 1019.2 - 0.0 - - - - - - -
20/01:30pm 19.9 SW 15 22 1019.2 - 0.0 - - - - - - -
20/01:00pm 19.8 SW 15 20 1019.3 - 0.0 - - - - - - -
20/12:30pm 19.4 SSW 15 21 1019.4 - 0.0 - - - - - - -
20/12:00pm 19.1 SSW 14 21 1019.4 - 0.0 - - - - - - -
20/11:30am 19.4 SW 13 18 1019.5 - 0.0 - - - - - - -
20/11:00am 18.9 SW 11 18 1019.5 - 0.0 - - - - - - -
20/10:30am 18.0 SW 10 14 1019.7 - 0.0 - - - - - - -
20/10:00am 18.2 W 9 15 1019.6 - 0.0 - - - - - - -
20/09:30am 16.6 W 9 13 1019.6 - 0.0 - - - - - - -
20/09:00am 16.3 W 8 11 1019.4 - 0.0 - - - - - - -
20/08:30am 15.1 WNW 6 7 1019.0 - 0.0 - - - - - - -
20/08:00am 13.8 NW 5 7 1018.9 - 0.0 - - - - - - -
20/07:30am 12.9 NW 6 8 1018.4 - 0.0 - - - - - - -
20/07:00am 11.9 NW 7 9 1018.2 - 0.0 - - - - - - -
20/06:30am 11.3 NW 6 7 1018.1 - 0.0 - - - - - - -
20/06:00am 10.8 NW 7 8 1018.0 - 0.0 - - - - - - -
20/05:30am 9.3 NW 7 9 1018.0 - 0.0 - - - - - - -
20/05:00am 9.4 NW 7 9 1017.9 - 0.0 - - - - - - -
20/04:30am 9.8 NW 8 9 1017.8 - 0.0 - - - - - - -
20/04:00am 10.4 NW 7 9 1017.9 - 0.0 - - - - - - -
20/03:30am 10.1 NW 7 9 1018.1 - 0.0 - - - - - - -
20/03:00am 8.2 NW 6 7 1018.4 - 0.0 - - - - - - -
20/02:30am 7.9 NNW 5 6 1018.6 - 0.0 - - - - - - -
20/02:00am 8.2 NNW 5 7 1018.8 - 0.0 - - - - - - -
20/01:30am 8.7 NW 5 6 1019.3 - 0.0 - - - - - - -
20/01:00am 9.3 NW 5 6 1019.4 - 0.0 - - - - - - -
20/12:30am 8.2 NW 6 7 1019.8 - 0.0 - - - - - - -
20/12:00am 8.6 NNW 5 5 1019.9 - 0.0 - - - - - - -
 
Date/Time
EDT
Temp

°C
Wind Pressure Rain
since 9am
mm
Weather Cloud Vis
km
Sea
Height
m
Swell
Dir
 
Speed
knots
Gust
knots
hPa Trend Height
m
Period
s
Dir
19/11:30pm 9.2 NW 5 6 1020.0 - 0.0 - - - - - - -
19/11:00pm 10.5 WNW 5 6 1020.3 - 0.0 - - - - - - -
19/10:30pm 10.9 WNW 5 6 1020.4 - 0.0 - - - - - - -
19/10:00pm 11.3 W 6 7 1020.3 - 0.0 - - - - - - -
19/09:30pm 12.2 W 7 9 1020.2 - 0.0 - - - - - - -
19/09:00pm 13.3 WSW 9 11 1020.3 - 0.0 - - - - - - -
19/08:30pm 14.4 SW 12 14 1020.3 - 0.0 - - - - - - -
19/08:00pm 15.8 SW 10 14 1020.0 - 0.0 - - - - - - -
19/07:30pm 16.4 SW 13 16 1019.8 - 0.0 - - - - - - -
19/07:00pm 16.3 SW 15 19 1019.6 - 0.0 - - - - - - -
19/06:30pm 16.7 SW 17 22 1019.3 - 0.0 - - - - - - -
19/06:00pm 17.0 SW 16 21 1019.1 - 0.0 - - - - - - -
19/05:30pm 17.1 SW 16 21 1019.0 - 0.0 - - - - - - -
19/05:00pm 17.4 SW 18 24 1019.0 - 0.0 - - - - - - -
19/04:30pm 17.6 SSW 18 23 1019.0 - 0.0 - - - - - - -
19/04:00pm 17.9 SW 20 26 1019.1 - 0.0 - - - - - - -
19/03:30pm 17.6 SW 20 27 1019.0 - 0.0 - - - - - - -
19/03:00pm 18.3 SW 19 25 1019.0 - 0.0 - - - - - - -
19/02:30pm 18.4 SW 19 25 1018.8 - 0.0 - - - - - - -
19/02:00pm 18.5 SW 18 24 1018.8 - 0.0 - - - - - - -
19/01:30pm 17.6 SW 15 20 1018.8 - 0.0 - - - - - - -
19/01:00pm 17.7 SW 14 20 1018.9 - 0.0 - - - - - - -
19/12:30pm 17.5 SW 14 21 1018.8 - 0.0 - - - - - - -
19/12:00pm 17.1 SSW 15 21 1018.9 - 0.0 - - - - - - -
19/11:30am 17.1 SW 14 20 1018.7 - 0.0 - - - - - - -

Other Formats:

Comma delimited format used in spreadsheet applications
http://www.bom.gov.au/fwo/IDV60701/IDV60701.94837.axf

JavaScript Object Notation format (JSON) in row-major order
http://www.bom.gov.au/fwo/IDV60701/IDV60701.94837.json